createdAt,value
2017-12-03T00:01:17.906Z,66.10
2017-12-03T00:03:01.357Z,66.10
2017-12-03T00:04:42.484Z,66.00
2017-12-03T00:06:23.195Z,65.90
2017-12-03T00:08:01.123Z,65.90
2017-12-03T00:09:40.087Z,65.80
2017-12-03T00:11:18.390Z,65.60
2017-12-03T00:12:57.711Z,65.30
2017-12-03T00:14:36.769Z,65.70
2017-12-03T00:16:15.258Z,65.80
2017-12-03T00:17:54.215Z,66.40
2017-12-03T00:19:35.314Z,65.90
2017-12-03T00:21:14.225Z,65.80
2017-12-03T00:24:22.415Z,65.00
2017-12-03T00:26:02.839Z,65.10
2017-12-03T00:27:40.904Z,65.10
2017-12-03T00:29:19.406Z,65.20
2017-12-03T00:30:58.320Z,65.80
2017-12-03T00:32:36.812Z,65.70
2017-12-03T00:34:22.005Z,65.90
2017-12-03T00:36:00.204Z,66.10
2017-12-03T00:37:38.849Z,66.10
2017-12-03T00:39:16.901Z,66.50
2017-12-03T00:40:57.369Z,66.60
2017-12-03T00:42:40.313Z,66.80
2017-12-03T00:44:19.410Z,66.00
2017-12-03T00:46:01.415Z,66.00
2017-12-03T00:47:39.608Z,66.50
2017-12-03T00:49:20.925Z,66.30
2017-12-03T00:51:00.009Z,65.80
2017-12-03T00:52:39.108Z,65.70
2017-12-03T00:54:18.950Z,65.20
2017-12-03T00:55:59.318Z,65.20
2017-12-03T00:57:41.403Z,66.00
2017-12-03T00:59:19.702Z,65.00
2017-12-03T01:00:59.294Z,65.20
2017-12-03T01:02:38.811Z,64.40
2017-12-03T01:04:20.301Z,64.60
2017-12-03T01:05:59.816Z,64.30
2017-12-03T01:07:38.731Z,64.30
2017-12-03T01:09:17.696Z,64.80
2017-12-03T01:10:56.954Z,64.30
2017-12-03T01:12:36.900Z,64.30
2017-12-03T01:14:15.801Z,64.10
2017-12-03T01:15:55.193Z,64.50
2017-12-03T01:17:39.695Z,64.80
2017-12-03T01:19:23.097Z,64.60
2017-12-03T01:21:02.197Z,64.50
2017-12-03T01:22:43.000Z,65.90
2017-12-03T01:25:58.007Z,65.40
2017-12-03T01:27:34.208Z,64.90
2017-12-03T01:29:11.375Z,65.70
2017-12-03T01:30:52.213Z,65.20
2017-12-03T01:32:28.437Z,65.20
2017-12-03T01:34:14.544Z,65.00
2017-12-03T01:35:54.336Z,64.70
2017-12-03T01:37:34.147Z,64.60
2017-12-03T01:39:12.950Z,64.60
2017-12-03T01:40:55.749Z,66.10
2017-12-03T01:42:32.560Z,65.50
2017-12-03T01:44:11.455Z,64.90
2017-12-03T01:45:47.746Z,64.10
2017-12-03T01:47:24.608Z,64.70
2017-12-03T01:49:01.867Z,64.10
2017-12-03T01:50:40.487Z,64.10
2017-12-03T01:52:18.574Z,63.50
2017-12-03T01:53:57.588Z,62.10
2017-12-03T01:55:37.683Z,62.10
2017-12-03T01:57:16.120Z,62.40
2017-12-03T01:58:52.695Z,63.00
2017-12-03T02:00:29.767Z,63.80
2017-12-03T02:02:05.907Z,64.10
2017-12-03T02:03:45.973Z,64.50
2017-12-03T02:05:24.371Z,64.70
2017-12-03T02:07:04.080Z,64.70
2017-12-03T02:08:44.863Z,64.70
2017-12-03T02:10:22.292Z,64.20
2017-12-03T02:12:01.252Z,64.10
2017-12-03T02:13:40.154Z,65.00
2017-12-03T02:15:22.863Z,65.10
2017-12-03T02:17:01.023Z,64.90
2017-12-03T02:18:39.362Z,64.50
2017-12-03T02:20:15.618Z,64.20
2017-12-03T02:21:53.853Z,64.70
2017-12-03T02:23:35.065Z,65.10
2017-12-03T02:25:12.752Z,64.60
2017-12-03T02:26:50.859Z,64.30
2017-12-03T02:28:32.581Z,64.30
2017-12-03T02:30:10.405Z,64.10
2017-12-03T02:31:50.344Z,64.10
2017-12-03T02:33:29.347Z,63.70
2017-12-03T02:35:05.521Z,63.40
2017-12-03T02:36:45.053Z,63.80
2017-12-03T02:38:23.782Z,64.50
2017-12-03T02:40:02.296Z,64.80
2017-12-03T02:41:41.170Z,65.00
2017-12-03T02:43:19.984Z,65.00
2017-12-03T02:44:58.862Z,65.70
2017-12-03T02:46:47.687Z,65.30
2017-12-03T02:48:25.668Z,65.30
2017-12-03T02:50:09.069Z,64.70
2017-12-03T02:51:48.272Z,64.70
2017-12-03T02:53:26.871Z,64.30
2017-12-03T02:55:03.231Z,64.70
2017-12-03T02:56:40.989Z,64.30
2017-12-03T02:58:19.976Z,64.60
2017-12-03T02:59:58.077Z,64.60
2017-12-03T03:01:36.777Z,64.30
2017-12-03T03:03:16.179Z,63.70
2017-12-03T03:04:55.684Z,63.70
2017-12-03T03:06:34.588Z,63.50
2017-12-03T03:08:12.789Z,63.40
2017-12-03T03:09:58.896Z,63.40
2017-12-03T03:11:44.681Z,63.70
2017-12-03T03:13:21.673Z,64.20
2017-12-03T03:14:58.513Z,64.20
2017-12-03T03:16:37.678Z,64.10
2017-12-03T03:18:16.178Z,64.60
2017-12-03T03:19:54.180Z,64.30
2017-12-03T03:21:33.182Z,66.20
2017-12-03T03:23:12.007Z,66.10
2017-12-03T03:24:54.328Z,64.50
2017-12-03T03:26:33.288Z,64.20
2017-12-03T03:28:09.992Z,64.10
2017-12-03T03:29:49.095Z,64.30
2017-12-03T03:31:27.299Z,64.80
2017-12-03T03:33:05.593Z,64.60
2017-12-03T03:34:44.194Z,64.60
2017-12-03T03:36:22.386Z,65.20
2017-12-03T03:38:00.991Z,66.40
2017-12-03T03:39:42.388Z,66.50
2017-12-03T03:41:23.188Z,64.90
2017-12-03T03:43:01.883Z,64.70
2017-12-03T03:44:40.682Z,65.00
2017-12-03T03:46:18.480Z,65.20
2017-12-03T03:47:56.478Z,64.00
2017-12-03T03:49:34.673Z,64.30
2017-12-03T03:51:12.974Z,65.40
2017-12-03T03:52:51.108Z,64.30
2017-12-03T03:54:30.369Z,63.70
2017-12-03T03:56:10.974Z,63.10
2017-12-03T03:57:49.165Z,63.10
2017-12-03T03:59:27.666Z,63.00
2017-12-03T04:01:06.576Z,63.30
2017-12-03T04:02:45.681Z,66.80
2017-12-03T04:04:24.670Z,66.80
2017-12-03T04:06:03.469Z,64.90
2017-12-03T04:07:42.068Z,65.20
2017-12-03T04:09:23.988Z,65.80
2017-12-03T04:11:01.043Z,67.70
2017-12-03T04:12:38.110Z,69.80
2017-12-03T04:14:14.238Z,70.40
2017-12-03T04:15:51.167Z,69.50
2017-12-03T04:17:29.771Z,69.40
2017-12-03T04:19:07.768Z,67.00
2017-12-03T04:20:48.258Z,65.30
2017-12-03T04:22:27.596Z,66.30
2017-12-03T04:24:10.692Z,70.40
2017-12-03T04:26:00.415Z,68.00
2017-12-03T04:27:39.504Z,68.00
2017-12-03T04:29:20.950Z,65.60
2017-12-03T04:30:59.313Z,65.50
2017-12-03T04:32:38.148Z,64.70
2017-12-03T04:34:16.719Z,64.30
2017-12-03T04:35:59.588Z,64.30
2017-12-03T04:37:38.535Z,65.70
2017-12-03T04:39:31.317Z,68.80
2017-12-03T04:41:10.321Z,72.40
2017-12-03T04:42:51.827Z,73.90
2017-12-03T04:44:30.437Z,73.80
2017-12-03T04:46:09.131Z,72.40
2017-12-03T04:47:59.731Z,69.90
2017-12-03T04:49:39.142Z,69.00
2017-12-03T04:51:17.748Z,67.30
2017-12-03T04:52:56.160Z,67.40
2017-12-03T04:54:34.328Z,69.30
2017-12-03T04:56:15.728Z,68.40
2017-12-03T04:57:54.829Z,68.20
2017-12-03T04:59:33.920Z,68.10
2017-12-03T05:01:12.221Z,70.10
2017-12-03T05:02:51.718Z,72.00
2017-12-03T05:04:31.530Z,71.70
2017-12-03T05:06:09.717Z,69.50
2017-12-03T05:07:48.711Z,69.20
2017-12-03T05:09:28.321Z,69.20
2017-12-03T05:11:06.419Z,69.40
2017-12-03T05:12:44.317Z,69.30
2017-12-03T05:14:22.341Z,69.50
2017-12-03T05:16:02.022Z,70.10
2017-12-03T05:17:40.322Z,70.10
2017-12-03T05:19:20.220Z,70.50
2017-12-03T05:20:58.019Z,71.60
2017-12-03T05:22:39.121Z,70.90
2017-12-03T05:24:21.524Z,71.20
2017-12-03T05:25:59.923Z,71.10
2017-12-03T05:27:38.824Z,71.40
2017-12-03T05:29:19.070Z,71.50
2017-12-03T05:30:57.632Z,72.20
2017-12-03T05:32:36.319Z,73.40
2017-12-03T05:34:14.847Z,74.30
2017-12-03T05:35:54.014Z,74.90
2017-12-03T05:37:32.811Z,74.00
2017-12-03T05:39:11.114Z,73.30
2017-12-03T05:40:50.414Z,72.80
2017-12-03T05:42:29.417Z,71.90
2017-12-03T05:44:08.415Z,72.00
2017-12-03T05:45:47.213Z,72.80
2017-12-03T05:47:28.521Z,74.00
2017-12-03T05:49:06.813Z,74.50
2017-12-03T05:50:45.610Z,74.80
2017-12-03T05:52:25.311Z,75.00
2017-12-03T05:54:03.315Z,75.00
2017-12-03T05:55:41.782Z,75.40
2017-12-03T05:57:18.085Z,77.40
2017-12-03T05:58:55.054Z,76.10
2017-12-03T06:00:35.818Z,76.10
2017-12-03T06:02:15.416Z,75.60
2017-12-03T06:03:53.618Z,75.00
2017-12-03T06:05:32.781Z,75.70
2017-12-03T06:07:11.443Z,75.90
2017-12-03T06:08:49.835Z,76.10
2017-12-03T06:10:28.935Z,76.00
2017-12-03T06:12:08.038Z,76.30
2017-12-03T06:14:01.648Z,75.80
2017-12-03T06:15:40.539Z,75.70
2017-12-03T06:17:19.648Z,75.90
2017-12-03T06:18:59.050Z,75.90
2017-12-03T06:20:38.549Z,75.80
2017-12-03T06:22:18.149Z,75.50
2017-12-03T06:23:58.171Z,76.10
2017-12-03T06:25:36.653Z,76.10
2017-12-03T06:27:19.057Z,76.10
2017-12-03T06:28:58.654Z,76.10
2017-12-03T06:30:38.472Z,76.60
2017-12-03T06:32:24.171Z,77.40
2017-12-03T06:34:03.161Z,76.30
2017-12-03T06:35:41.362Z,78.00
2017-12-03T06:37:25.057Z,77.30
2017-12-03T06:39:03.254Z,77.00
2017-12-03T06:40:41.852Z,76.40
2017-12-03T06:42:20.968Z,75.60
2017-12-03T06:44:00.652Z,75.60
2017-12-03T06:45:40.043Z,75.20
2017-12-03T06:47:18.946Z,75.90
2017-12-03T06:48:57.850Z,76.60
2017-12-03T06:50:37.144Z,76.50
2017-12-03T06:52:15.643Z,76.50
2017-12-03T06:53:55.959Z,77.40
2017-12-03T06:55:37.247Z,78.10
2017-12-03T06:57:21.637Z,76.60
2017-12-03T06:59:00.246Z,76.60
2017-12-03T07:00:41.044Z,76.40
2017-12-03T07:02:19.841Z,76.10
2017-12-03T07:03:57.855Z,75.80
2017-12-03T07:05:36.049Z,75.70
2017-12-03T07:07:15.469Z,76.20
2017-12-03T07:08:52.504Z,76.80
2017-12-03T07:10:30.648Z,76.80
2017-12-03T07:12:08.650Z,77.80
2017-12-03T07:13:49.255Z,77.70
2017-12-03T07:15:27.650Z,77.50
2017-12-03T07:17:05.957Z,79.10
2017-12-03T07:18:44.368Z,78.60
2017-12-03T07:20:23.055Z,78.20
2017-12-03T07:22:01.458Z,77.70
2017-12-03T07:23:40.365Z,77.90
2017-12-03T07:25:19.064Z,78.60
2017-12-03T07:26:57.170Z,79.10
2017-12-03T07:28:36.764Z,78.50
2017-12-03T07:30:18.069Z,78.10
2017-12-03T07:31:56.118Z,77.50
2017-12-03T07:33:36.068Z,77.30
2017-12-03T07:35:15.164Z,77.40
2017-12-03T07:36:53.366Z,77.70
2017-12-03T07:38:31.874Z,78.30
2017-12-03T07:40:16.285Z,78.40
2017-12-03T07:41:54.878Z,81.40
2017-12-03T07:43:32.979Z,83.00
2017-12-03T07:45:14.076Z,85.60
2017-12-03T07:46:52.902Z,83.60
2017-12-03T07:48:36.779Z,81.40
2017-12-03T07:50:14.986Z,80.30
2017-12-03T07:51:53.371Z,79.10
2017-12-03T07:53:32.069Z,78.70
2017-12-03T07:55:10.574Z,78.50
2017-12-03T07:56:49.402Z,77.90
2017-12-03T07:58:28.774Z,77.60
2017-12-03T08:00:09.482Z,77.60
2017-12-03T08:01:49.597Z,78.40
2017-12-03T08:03:27.474Z,78.20
2017-12-03T08:05:05.674Z,78.60
2017-12-03T08:06:44.077Z,79.20
2017-12-03T08:08:22.380Z,78.40
2017-12-03T08:10:01.078Z,79.50
2017-12-03T08:11:42.079Z,79.00
2017-12-03T08:13:20.376Z,78.20
2017-12-03T08:14:58.381Z,77.40
2017-12-03T08:16:36.884Z,78.60
2017-12-03T08:18:15.375Z,77.50
2017-12-03T08:19:54.983Z,77.10
2017-12-03T08:21:35.299Z,77.10
2017-12-03T08:23:14.170Z,77.10
2017-12-03T08:24:53.067Z,77.10
2017-12-03T08:26:32.863Z,76.40
2017-12-03T08:28:14.363Z,76.40
2017-12-03T08:29:52.258Z,77.80
2017-12-03T08:31:30.714Z,77.00
2017-12-03T08:33:10.263Z,76.80
2017-12-03T08:34:49.454Z,78.30
2017-12-03T08:36:27.560Z,78.30
2017-12-03T08:38:05.655Z,77.80
2017-12-03T08:39:44.353Z,78.00
2017-12-03T08:41:23.670Z,79.60
2017-12-03T08:43:01.574Z,79.60
2017-12-03T08:44:39.774Z,78.70
2017-12-03T08:46:18.779Z,78.20
2017-12-03T08:47:57.669Z,78.40
2017-12-03T08:49:36.563Z,78.70
2017-12-03T08:51:14.765Z,78.70
2017-12-03T08:52:53.272Z,78.20
2017-12-03T08:54:31.680Z,78.10
2017-12-03T08:56:10.986Z,78.10
2017-12-03T08:57:56.096Z,76.90
2017-12-03T08:59:34.517Z,76.60
2017-12-03T09:01:14.002Z,77.00
2017-12-03T09:02:52.436Z,77.30
2017-12-03T09:04:31.128Z,77.20
2017-12-03T09:06:09.511Z,77.40
2017-12-03T09:07:48.619Z,77.40
2017-12-03T09:09:27.816Z,77.90
2017-12-03T09:11:05.924Z,77.90
2017-12-03T09:12:45.781Z,77.80
2017-12-03T09:14:25.325Z,77.30
2017-12-03T09:16:15.130Z,77.20
2017-12-03T09:17:53.540Z,77.20
2017-12-03T09:19:32.229Z,78.30
2017-12-03T09:21:13.424Z,78.70
2017-12-03T09:22:52.832Z,79.50
2017-12-03T09:24:31.730Z,79.60
2017-12-03T09:26:10.028Z,79.00
2017-12-03T09:27:48.639Z,78.50
2017-12-03T09:29:27.614Z,79.00
2017-12-03T09:31:08.324Z,78.60
2017-12-03T09:32:45.518Z,78.50
2017-12-03T09:34:22.762Z,78.40
2017-12-03T09:36:03.629Z,78.40
2017-12-03T09:37:46.122Z,78.00
2017-12-03T09:39:25.654Z,78.70
2017-12-03T09:41:03.823Z,78.00
2017-12-03T09:42:42.458Z,77.30
2017-12-03T09:44:21.908Z,77.60
2017-12-03T09:46:00.517Z,77.40
2017-12-03T09:47:40.299Z,78.20
2017-12-03T09:49:19.703Z,78.20
2017-12-03T09:51:00.029Z,78.20
2017-12-03T09:52:41.823Z,78.90
2017-12-03T09:54:20.495Z,79.00
2017-12-03T09:56:00.195Z,79.30
2017-12-03T09:57:39.139Z,78.40
2017-12-03T09:59:18.402Z,77.90
2017-12-03T10:00:58.629Z,77.80
2017-12-03T10:02:40.909Z,77.20
2017-12-03T10:04:21.477Z,78.00
2017-12-03T10:06:00.108Z,78.00
2017-12-03T10:07:39.770Z,77.60
2017-12-03T10:09:21.262Z,77.40
2017-12-03T10:11:05.523Z,77.30
2017-12-03T10:12:48.849Z,77.80
2017-12-03T10:14:33.253Z,79.10
2017-12-03T10:16:11.832Z,78.80
2017-12-03T10:17:53.528Z,78.50
2017-12-03T10:19:45.642Z,78.50
2017-12-03T10:21:24.549Z,77.20
2017-12-03T10:23:08.524Z,79.10
2017-12-03T10:24:45.167Z,77.50
2017-12-03T10:26:22.514Z,79.60
2017-12-03T10:28:01.104Z,79.00
2017-12-03T10:29:53.240Z,76.60
2017-12-03T10:31:37.546Z,75.60
2017-12-03T10:33:18.037Z,76.30
2017-12-03T10:34:55.497Z,76.10
2017-12-03T10:36:34.157Z,75.10
2017-12-03T10:38:23.235Z,75.00
2017-12-03T10:40:01.935Z,75.60
2017-12-03T10:41:41.520Z,76.00
2017-12-03T10:43:30.919Z,76.70
2017-12-03T10:45:07.916Z,77.00
2017-12-03T10:46:47.122Z,77.80
2017-12-03T10:48:24.242Z,78.20
2017-12-03T10:50:00.723Z,79.30
2017-12-03T10:51:45.317Z,79.60
2017-12-03T10:53:23.617Z,79.50
2017-12-03T10:55:04.615Z,78.10
2017-12-03T10:56:42.445Z,77.50
2017-12-03T10:58:20.012Z,77.20
2017-12-03T10:59:57.922Z,77.20
2017-12-03T11:01:38.413Z,76.10
2017-12-03T11:03:17.816Z,78.90
2017-12-03T11:04:56.716Z,76.40
2017-12-03T11:06:36.138Z,76.30
2017-12-03T11:08:14.415Z,75.50
2017-12-03T11:09:53.413Z,75.70
2017-12-03T11:11:33.013Z,76.40
2017-12-03T11:13:19.524Z,79.10
2017-12-03T11:14:59.417Z,76.90
2017-12-03T11:16:39.734Z,76.90
2017-12-03T11:18:20.131Z,76.40
2017-12-03T11:20:02.819Z,75.80
2017-12-03T11:21:42.189Z,75.30
2017-12-03T11:23:22.712Z,75.20
2017-12-03T11:25:01.122Z,75.20
2017-12-03T11:26:41.021Z,75.10
2017-12-03T11:28:19.816Z,77.10
2017-12-03T11:29:59.636Z,78.90
2017-12-03T11:31:37.923Z,78.90
2017-12-03T11:33:17.721Z,77.60
2017-12-03T11:34:56.620Z,77.00
2017-12-03T11:36:40.115Z,77.30
2017-12-03T11:38:19.643Z,77.20
2017-12-03T11:39:58.133Z,77.00
2017-12-03T11:41:36.540Z,79.10
2017-12-03T11:43:16.573Z,81.70
2017-12-03T11:44:53.006Z,83.30
2017-12-03T11:46:31.324Z,80.50
2017-12-03T11:48:13.528Z,82.30
2017-12-03T11:49:53.736Z,81.50
2017-12-03T11:51:32.734Z,77.30
2017-12-03T11:53:11.845Z,77.30
2017-12-03T11:54:50.239Z,79.00
2017-12-03T11:56:30.268Z,77.10
2017-12-03T11:58:09.375Z,77.10
2017-12-03T11:59:47.242Z,76.50
2017-12-03T12:01:26.446Z,78.80
2017-12-03T12:03:07.650Z,79.60
2017-12-03T12:04:47.650Z,77.50
2017-12-03T12:06:27.466Z,76.30
2017-12-03T12:08:05.976Z,76.60
2017-12-03T12:09:45.154Z,79.70
2017-12-03T12:11:23.858Z,81.90
2017-12-03T12:13:03.159Z,81.10
2017-12-03T12:14:44.881Z,77.30
2017-12-03T12:16:23.952Z,77.30
2017-12-03T12:18:02.053Z,76.90
2017-12-03T12:19:41.750Z,75.40
2017-12-03T12:21:19.752Z,75.40
2017-12-03T12:22:58.432Z,76.40
2017-12-03T12:24:37.433Z,75.80
2017-12-03T12:26:22.540Z,76.40
2017-12-03T12:28:00.433Z,77.00
2017-12-03T12:41:38.107Z,72.40
2017-12-03T12:43:25.417Z,72.40
2017-12-03T12:45:04.222Z,74.20
2017-12-03T12:46:43.314Z,73.10
2017-12-03T12:48:23.706Z,74.70
2017-12-03T12:50:02.214Z,74.70
2017-12-03T12:51:42.729Z,74.90
2017-12-03T12:53:22.435Z,73.90
2017-12-03T12:55:01.364Z,73.80
2017-12-03T12:56:40.997Z,76.90
2017-12-03T12:58:21.968Z,79.80
2017-12-03T13:00:00.687Z,80.60
2017-12-03T13:01:43.805Z,80.90
2017-12-03T13:03:26.460Z,81.90
2017-12-03T13:05:05.772Z,83.00
2017-12-03T13:06:45.891Z,83.00
2017-12-03T13:08:24.775Z,83.80
2017-12-03T13:10:03.998Z,85.00
2017-12-03T13:11:44.989Z,82.10
2017-12-03T13:13:24.109Z,83.50
2017-12-03T13:15:03.492Z,81.20
2017-12-03T13:16:43.099Z,78.00
2017-12-03T13:18:23.090Z,78.70
2017-12-03T13:20:04.591Z,78.70
2017-12-03T13:21:42.892Z,77.80
2017-12-03T13:23:23.807Z,77.00
2017-12-03T13:25:03.709Z,76.20
2017-12-03T13:26:43.111Z,76.60
2017-12-03T13:28:31.906Z,80.00
2017-12-03T13:30:10.907Z,80.00
2017-12-03T13:31:49.812Z,77.80
2017-12-03T13:33:30.344Z,78.00
2017-12-03T13:35:23.319Z,78.00
2017-12-03T13:37:01.924Z,77.30
2017-12-03T13:38:46.312Z,77.00
2017-12-03T13:40:25.403Z,80.60
2017-12-03T13:42:05.866Z,80.90
2017-12-03T13:43:44.710Z,82.90
2017-12-03T13:45:40.495Z,82.10
2017-12-03T13:47:19.223Z,81.30
2017-12-03T13:48:58.193Z,82.30
2017-12-03T13:50:39.091Z,84.00
2017-12-03T13:52:17.604Z,84.00
2017-12-03T13:53:58.902Z,84.60
2017-12-03T13:55:42.692Z,84.40
2017-12-03T13:57:24.083Z,86.10
2017-12-03T13:59:04.691Z,84.80
2017-12-03T14:00:44.194Z,84.80
2017-12-03T14:02:24.684Z,84.70
2017-12-03T14:04:05.002Z,84.70
2017-12-03T14:05:48.589Z,84.00
2017-12-03T14:07:28.600Z,85.60
2017-12-03T14:09:10.102Z,85.90
2017-12-03T14:10:54.122Z,84.90
2017-12-03T14:12:36.389Z,83.90
2017-12-03T14:14:17.613Z,82.00
2017-12-03T14:16:06.256Z,81.20
2017-12-03T14:17:51.481Z,80.60
2017-12-03T14:19:32.625Z,80.60
2017-12-03T14:21:13.362Z,81.60
2017-12-03T14:22:54.569Z,81.60
2017-12-03T14:24:34.671Z,82.80
2017-12-03T14:26:13.556Z,83.50
2017-12-03T14:27:52.057Z,85.20
2017-12-03T14:29:32.751Z,85.70
2017-12-03T14:31:11.472Z,86.60
2017-12-03T14:32:50.452Z,89.20
2017-12-03T14:34:29.545Z,88.70
2017-12-03T14:36:10.287Z,88.50
2017-12-03T14:37:51.660Z,90.20
2017-12-03T14:39:38.953Z,88.00
2017-12-03T14:41:19.154Z,85.30
2017-12-03T14:43:02.107Z,89.40
2017-12-03T14:44:43.260Z,89.40
2017-12-03T14:46:25.766Z,88.70
2017-12-03T14:48:08.705Z,88.70
2017-12-03T14:49:52.290Z,90.00
2017-12-03T14:51:31.270Z,87.90
2017-12-03T14:53:14.972Z,83.90
2017-12-03T14:54:57.867Z,83.90
2017-12-03T14:56:45.084Z,82.50
2017-12-03T14:58:24.651Z,82.20
2017-12-03T15:00:05.193Z,82.10
2017-12-03T15:01:44.767Z,82.10
2017-12-03T15:05:14.242Z,82.00
2017-12-03T15:06:53.153Z,83.30
2017-12-03T15:08:31.843Z,82.70
2017-12-03T15:10:12.548Z,80.20
2017-12-03T15:11:52.041Z,80.10
2017-12-03T15:13:32.269Z,80.10
2017-12-03T15:15:13.451Z,80.00
2017-12-03T15:16:52.691Z,80.90
2017-12-03T15:18:32.439Z,81.70
2017-12-03T15:20:12.572Z,83.90
2017-12-03T15:21:53.882Z,84.70
2017-12-03T15:23:35.746Z,84.70
2017-12-03T15:25:15.758Z,81.70
2017-12-03T15:26:57.860Z,86.60
2017-12-03T15:28:41.986Z,86.60
2017-12-03T15:30:21.013Z,84.80
2017-12-03T15:32:01.081Z,84.40
2017-12-03T15:33:42.717Z,82.10
2017-12-03T15:35:24.741Z,82.30
2017-12-03T15:37:04.718Z,83.60
2017-12-03T15:38:43.509Z,83.50
2017-12-03T15:40:22.906Z,81.50
2017-12-03T15:42:02.710Z,79.30
2017-12-03T15:43:44.601Z,79.60
2017-12-03T15:45:23.435Z,79.00
2017-12-03T15:47:02.913Z,78.40
2017-12-03T15:48:43.122Z,79.50
2017-12-03T15:50:22.317Z,80.50
2017-12-03T15:52:02.461Z,84.10
2017-12-03T15:53:45.118Z,83.50
2017-12-03T15:55:24.620Z,80.30
2017-12-03T15:57:03.840Z,83.50
2017-12-03T15:58:44.412Z,85.60
2017-12-03T16:00:23.614Z,86.60
2017-12-03T16:02:03.127Z,86.00
2017-12-03T16:03:43.314Z,83.40
2017-12-03T16:05:27.427Z,81.30
2017-12-03T16:07:07.519Z,79.30
2017-12-03T16:08:46.411Z,80.30
2017-12-03T16:10:25.104Z,82.60
2017-12-03T16:12:04.199Z,80.60
2017-12-03T16:13:44.934Z,79.10
2017-12-03T16:15:26.309Z,80.10
2017-12-03T16:17:06.096Z,79.50
2017-12-03T16:18:45.533Z,76.80
2017-12-03T16:20:24.597Z,76.80
2017-12-03T16:22:04.809Z,75.30
2017-12-03T16:23:45.398Z,75.50
2017-12-03T16:25:24.719Z,77.50
2017-12-03T16:27:07.008Z,77.80
2017-12-03T16:28:45.692Z,78.80
2017-12-03T16:30:24.632Z,80.20
2017-12-03T16:32:06.925Z,82.90
2017-12-03T16:33:46.500Z,86.20
2017-12-03T16:35:26.699Z,86.20
2017-12-03T16:37:07.310Z,81.50
2017-12-03T16:38:46.514Z,81.50
2017-12-03T16:40:28.993Z,81.70
2017-12-03T16:42:11.207Z,81.70
2017-12-03T16:43:53.197Z,81.00
2017-12-03T16:45:37.377Z,81.70
2017-12-03T16:47:16.979Z,81.70
2017-12-03T16:48:57.150Z,83.10
2017-12-03T16:50:37.400Z,83.40
2017-12-03T16:52:18.993Z,82.50
2017-12-03T16:53:58.988Z,78.40
2017-12-03T16:55:37.488Z,78.30
2017-12-03T16:57:16.600Z,78.70
2017-12-03T16:58:56.289Z,80.00
2017-12-03T17:00:38.185Z,82.20
2017-12-03T17:02:18.083Z,83.20
2017-12-03T17:04:02.818Z,82.60
2017-12-03T17:05:42.180Z,81.90
2017-12-03T17:07:22.078Z,81.50
2017-12-03T17:09:01.887Z,83.20
2017-12-03T17:10:50.002Z,82.20
2017-12-03T17:12:29.743Z,82.20
2017-12-03T17:14:08.719Z,81.90
2017-12-03T17:15:48.748Z,81.80
2017-12-03T17:17:27.906Z,84.00
2017-12-03T17:19:07.617Z,83.10
2017-12-03T17:20:46.417Z,84.00
2017-12-03T17:22:27.309Z,83.50
2017-12-03T17:24:08.219Z,82.30
2017-12-03T17:25:52.416Z,82.20
2017-12-03T17:27:35.345Z,80.50
2017-12-03T17:29:17.932Z,81.80
2017-12-03T17:30:58.524Z,81.40
2017-12-03T17:32:41.129Z,81.30
2017-12-03T17:34:23.220Z,81.10
2017-12-03T17:36:03.634Z,78.70
2017-12-03T17:37:43.929Z,79.40
2017-12-03T17:39:24.421Z,80.90
2017-12-03T17:41:05.130Z,82.40
2017-12-03T17:42:49.509Z,83.40
2017-12-03T17:44:30.347Z,82.50
2017-12-03T17:46:09.938Z,80.50
2017-12-03T17:47:49.917Z,79.80
2017-12-03T17:49:31.614Z,80.60
2017-12-03T17:51:10.125Z,80.60
2017-12-03T17:52:50.114Z,83.10
2017-12-03T17:54:28.530Z,83.80
2017-12-03T17:56:12.502Z,83.10
2017-12-03T17:57:52.530Z,81.70
2017-12-03T17:59:33.015Z,80.40
2017-12-03T18:01:12.209Z,81.40
2017-12-03T18:02:50.914Z,80.80
2017-12-03T18:04:30.435Z,81.60
2017-12-03T18:06:08.822Z,81.70
2017-12-03T18:07:48.113Z,82.90
2017-12-03T18:09:26.712Z,83.30
2017-12-03T18:11:05.137Z,81.30
2017-12-03T18:12:44.624Z,81.40
2017-12-03T18:16:14.172Z,84.20
2017-12-03T18:17:52.450Z,82.60
2017-12-03T18:19:32.252Z,82.10
2017-12-03T18:21:12.761Z,84.90
2017-12-03T18:22:50.942Z,86.10
2017-12-03T18:24:29.152Z,88.10
2017-12-03T18:26:08.154Z,89.30
2017-12-03T18:27:49.053Z,84.80
2017-12-03T18:29:28.677Z,82.10
2017-12-03T18:31:08.267Z,82.10
2017-12-03T18:32:47.964Z,83.10
2017-12-03T18:34:26.375Z,85.60
2017-12-03T18:36:06.184Z,84.40
2017-12-03T18:37:45.870Z,84.50
2017-12-03T18:39:27.674Z,84.10
2017-12-03T18:41:07.383Z,84.10
2017-12-03T18:42:48.192Z,82.80
2017-12-03T18:44:27.681Z,82.80
2017-12-03T18:46:06.663Z,83.10
2017-12-03T18:47:45.525Z,84.20
2017-12-03T18:49:24.472Z,83.20
2017-12-03T18:51:04.475Z,83.20
2017-12-03T18:52:47.367Z,81.70
2017-12-03T18:54:26.163Z,82.10
2017-12-03T18:56:06.058Z,82.20
2017-12-03T18:57:47.273Z,81.40
2017-12-03T18:59:27.851Z,83.00
2017-12-03T19:01:08.021Z,83.00
2017-12-03T19:02:47.061Z,82.90
2017-12-03T19:04:26.572Z,83.30
2017-12-03T19:06:07.258Z,85.00
2017-12-03T19:07:48.679Z,86.10
2017-12-03T19:09:29.493Z,88.70
2017-12-03T19:11:10.892Z,88.40
2017-12-03T19:12:49.558Z,85.10
2017-12-03T19:14:29.561Z,85.50
2017-12-03T19:16:10.767Z,84.10
2017-12-03T19:17:53.258Z,85.20
2017-12-03T19:19:36.061Z,85.10
2017-12-03T19:21:15.961Z,84.10
2017-12-03T19:22:55.672Z,81.90
2017-12-03T19:24:34.556Z,83.40
2017-12-03T19:26:14.249Z,82.30
2017-12-03T19:27:53.442Z,80.50
2017-12-03T19:29:32.242Z,80.50
2017-12-03T19:31:11.942Z,80.80
2017-12-03T19:32:51.139Z,81.10
2017-12-03T19:34:30.041Z,81.80
2017-12-03T19:36:11.244Z,84.00
2017-12-03T19:37:50.351Z,84.00
2017-12-03T19:39:29.580Z,86.30
2017-12-03T19:41:09.945Z,83.40
2017-12-03T19:42:49.741Z,83.30
2017-12-03T19:44:28.847Z,81.50
2017-12-03T19:46:10.338Z,81.50
2017-12-03T19:47:49.840Z,84.50
2017-12-03T19:49:28.235Z,84.50
2017-12-03T19:51:08.037Z,85.60
2017-12-03T19:52:47.936Z,84.80
2017-12-03T19:54:26.036Z,84.70
2017-12-03T19:56:04.655Z,84.30
2017-12-03T19:57:44.841Z,86.10
2017-12-03T19:59:25.149Z,85.00
2017-12-03T20:01:03.952Z,84.90
2017-12-03T20:02:42.460Z,83.80
2017-12-03T20:04:21.863Z,83.10
2017-12-03T20:06:00.973Z,81.60
2017-12-03T20:07:41.793Z,80.00
2017-12-03T20:09:20.581Z,80.00
2017-12-03T20:10:59.679Z,80.20
2017-12-03T20:12:40.881Z,79.80
2017-12-03T20:14:19.191Z,80.20
2017-12-03T20:15:58.498Z,79.80
2017-12-03T20:17:37.789Z,78.80
2017-12-03T20:19:17.591Z,79.90
2017-12-03T20:20:56.789Z,83.40
2017-12-03T20:22:35.292Z,85.20
2017-12-03T20:24:17.594Z,83.60
2017-12-03T20:25:56.222Z,83.90
2017-12-03T20:27:36.902Z,84.10
2017-12-03T20:29:16.397Z,84.10
2017-12-03T20:30:56.693Z,84.50
2017-12-03T20:32:38.206Z,84.50
2017-12-03T20:34:16.882Z,84.00
2017-12-03T20:35:56.011Z,86.10
2017-12-03T20:37:34.569Z,89.10
2017-12-03T20:39:13.971Z,84.90
2017-12-03T20:40:53.273Z,83.80
2017-12-03T20:42:32.067Z,83.70
2017-12-03T20:44:11.160Z,82.90
2017-12-03T20:45:49.772Z,84.20
2017-12-03T20:47:28.570Z,83.40
2017-12-03T20:49:09.217Z,83.60
2017-12-03T20:50:49.763Z,84.30
2017-12-03T20:52:29.266Z,87.20
2017-12-03T20:54:09.078Z,85.70
2017-12-03T20:55:48.280Z,84.60
2017-12-03T20:57:26.872Z,84.60
2017-12-03T20:59:05.776Z,82.90
2017-12-03T21:00:46.280Z,84.40
2017-12-03T21:02:29.483Z,86.10
2017-12-03T21:04:08.170Z,85.00
2017-12-03T21:05:47.097Z,82.30
2017-12-03T21:07:29.076Z,81.90
2017-12-03T21:09:08.884Z,82.30
2017-12-03T21:10:48.196Z,80.20
2017-12-03T21:24:50.837Z,84.30
2017-12-03T21:26:30.222Z,84.30
2017-12-03T21:28:10.764Z,84.00
2017-12-03T21:29:49.529Z,82.10
2017-12-03T21:31:29.543Z,80.50
2017-12-03T21:33:08.537Z,78.90
2017-12-03T21:34:47.570Z,78.40
2017-12-03T21:36:27.151Z,78.40
2017-12-03T21:38:05.942Z,80.80
2017-12-03T21:39:45.044Z,80.40
2017-12-03T21:41:25.142Z,80.60
2017-12-03T21:43:04.233Z,82.80
2017-12-03T21:44:43.133Z,83.60
2017-12-03T21:46:22.519Z,81.70
2017-12-03T21:48:01.819Z,81.70
2017-12-03T21:49:41.926Z,82.70
2017-12-03T21:51:22.220Z,82.60
2017-12-03T21:53:02.128Z,86.20
2017-12-03T21:54:41.814Z,85.30
2017-12-03T21:56:20.823Z,85.10
2017-12-03T21:58:02.224Z,84.60